Cherkasy, Ukraine
Current Conditions -  °F | °C
As of 11:30 PM on Tuesday 25 Nov 2014 (Local Time) from UKBB Reporting Station
Overcast Overcast  
Wind Chill: 15°   Ceiling: 2000
Heat Index: 23°   Visibility: 6mi
Dew Point: 18°   Wind: 7mph
Humidity: 80%   Direction: 50°NE
Pressure: 30.48"   Gusts: NA
Location:  49.43°N, 32.07°E
Report Text: UKBB 252030Z 05003MPS 9999 OVC020 M05/M08 Q1032 88810550 NOSIG
Loading
Personal Weather Stations






























Interactive Weather Map New forecast layout! Learn more

10-Day Weather Forecast

Advertisements
Track Severe Weather on mobile